createdAt,value
2022-09-12T00:02:04.429Z,6.30
2022-09-12T00:04:32.116Z,5.78
2022-09-12T00:06:59.435Z,5.62
2022-09-12T00:09:26.804Z,5.07
2022-09-12T00:11:54.455Z,9.68
2022-09-12T00:14:21.794Z,5.55
2022-09-12T00:16:49.191Z,4.90
2022-09-12T00:19:16.809Z,7.03
2022-09-12T00:21:44.165Z,6.40
2022-09-12T00:24:11.560Z,5.75
2022-09-12T00:26:39.144Z,7.87
2022-09-12T00:29:06.629Z,7.72
2022-09-12T00:31:34.081Z,7.53
2022-09-12T00:34:01.732Z,6.07
2022-09-12T00:36:29.389Z,5.37
2022-09-12T00:38:56.900Z,6.60
2022-09-12T00:41:26.828Z,5.85
2022-09-12T00:44:24.733Z,5.37
2022-09-12T00:46:55.303Z,5.00
2022-09-12T00:49:41.138Z,5.35
2022-09-12T00:52:10.533Z,5.05
2022-09-12T00:54:41.560Z,6.30
2022-09-12T00:57:09.752Z,6.32
2022-09-12T01:00:01.981Z,5.18
2022-09-12T01:02:29.622Z,3.70
2022-09-12T01:04:56.986Z,5.82
2022-09-12T01:07:24.326Z,6.78
2022-09-12T01:09:51.908Z,5.55
2022-09-12T01:12:19.274Z,5.07
2022-09-12T01:14:46.643Z,6.25
2022-09-12T01:17:14.935Z,7.72
2022-09-12T01:20:05.629Z,5.97
2022-09-12T01:23:00.889Z,6.72
2022-09-12T01:25:55.572Z,6.70
2022-09-12T01:29:08.341Z,9.20
2022-09-12T01:31:57.805Z,8.68
2022-09-12T01:35:10.616Z,7.57
2022-09-12T01:37:42.625Z,6.82
2022-09-12T01:40:16.644Z,10.07
2022-09-12T01:43:07.143Z,8.45
2022-09-12T01:45:48.986Z,7.03
2022-09-12T01:48:20.439Z,7.57
2022-09-12T01:50:52.221Z,8.38
2022-09-12T01:53:25.422Z,8.13
2022-09-12T01:56:02.241Z,8.18
2022-09-12T02:01:18.216Z,12.95
2022-09-12T02:03:51.902Z,10.77
2022-09-12T02:06:33.630Z,10.23
2022-09-12T02:09:05.262Z,12.43
2022-09-12T02:11:33.354Z,10.02
2022-09-12T02:14:12.352Z,12.37
2022-09-12T02:16:45.264Z,10.80
2022-09-12T02:19:16.004Z,9.23
2022-09-12T02:21:56.519Z,9.55
2022-09-12T02:24:25.967Z,8.60
2022-09-12T02:26:56.134Z,9.98
2022-09-12T02:29:23.769Z,13.15
2022-09-12T02:32:04.948Z,11.88
2022-09-12T02:34:34.420Z,12.73
2022-09-12T02:37:07.634Z,9.90
2022-09-12T02:39:35.233Z,9.55
2022-09-12T02:42:02.852Z,10.63
2022-09-12T02:44:30.273Z,10.30
2022-09-12T02:47:01.469Z,11.40
2022-09-12T02:49:28.804Z,10.13
2022-09-12T02:51:56.176Z,12.02
2022-09-12T02:54:23.832Z,12.37
2022-09-12T02:56:51.181Z,12.50
2022-09-12T02:59:19.669Z,8.73
2022-09-12T03:02:21.394Z,12.60
2022-09-12T03:05:03.048Z,9.30
2022-09-12T03:07:52.863Z,10.32
2022-09-12T03:10:57.849Z,10.23
2022-09-12T03:13:50.040Z,9.40
2022-09-12T03:16:28.712Z,10.38
2022-09-12T03:19:01.640Z,10.40
2022-09-12T03:21:32.050Z,12.30
2022-09-12T03:24:18.230Z,11.23
2022-09-12T03:27:06.918Z,12.00
2022-09-12T03:29:34.542Z,11.02
2022-09-12T03:32:02.038Z,12.80
2022-09-12T03:34:29.406Z,12.10
2022-09-12T03:36:57.063Z,10.77
2022-09-12T03:39:24.584Z,12.82
2022-09-12T03:41:51.951Z,13.65
2022-09-12T03:44:19.702Z,11.00
2022-09-12T03:46:47.068Z,13.38
2022-09-12T03:49:14.418Z,14.43
2022-09-12T03:51:43.071Z,10.40
2022-09-12T03:54:10.761Z,16.45
2022-09-12T03:56:38.123Z,13.07
2022-09-12T03:59:06.640Z,10.80
2022-09-12T04:01:34.089Z,16.10
2022-09-12T04:04:01.808Z,11.80
2022-09-12T04:06:29.724Z,14.35
2022-09-12T04:08:57.125Z,13.02
2022-09-12T04:11:24.793Z,12.50
2022-09-12T04:13:52.164Z,12.48
2022-09-12T04:16:19.736Z,12.05
2022-09-12T04:18:47.541Z,17.55
2022-09-12T04:21:17.295Z,12.20
2022-09-12T04:23:44.720Z,13.95
2022-09-12T04:26:13.667Z,12.68
2022-09-12T04:28:41.046Z,13.25
2022-09-12T04:31:13.466Z,15.65
2022-09-12T04:33:41.253Z,12.05
2022-09-12T04:36:14.683Z,15.32
2022-09-12T04:38:46.593Z,16.67
2022-09-12T04:41:21.772Z,13.77
2022-09-12T04:43:52.566Z,14.77
2022-09-12T04:46:20.410Z,11.82
2022-09-12T04:48:49.260Z,13.02
2022-09-12T04:51:25.935Z,16.50
2022-09-12T04:53:54.545Z,13.88
2022-09-12T04:56:22.193Z,12.50
2022-09-12T04:58:49.762Z,14.30
2022-09-12T05:01:18.642Z,17.73
2022-09-12T05:03:46.446Z,17.20
2022-09-12T05:06:21.289Z,12.88
2022-09-12T05:08:48.924Z,15.10
2022-09-12T05:11:26.662Z,14.77
2022-09-12T05:13:58.025Z,12.80
2022-09-12T05:16:26.102Z,14.52
2022-09-12T05:18:53.584Z,14.68
2022-09-12T05:21:23.157Z,12.82
2022-09-12T05:23:54.493Z,15.25
2022-09-12T05:26:22.956Z,14.93
2022-09-12T05:28:50.837Z,16.75
2022-09-12T05:31:22.743Z,14.70
2022-09-12T05:33:51.117Z,16.02
2022-09-12T05:36:22.018Z,13.55
2022-09-12T05:38:49.665Z,17.30
2022-09-12T05:41:24.804Z,17.05
2022-09-12T05:43:59.747Z,18.17
2022-09-12T05:46:28.572Z,17.35
2022-09-12T05:48:56.835Z,16.12
2022-09-12T05:51:28.257Z,14.32
2022-09-12T05:53:57.077Z,18.60
2022-09-12T05:56:26.047Z,16.23
2022-09-12T05:58:54.239Z,17.60
2022-09-12T06:01:21.900Z,16.77
2022-09-12T06:03:54.244Z,17.75
2022-09-12T06:06:23.383Z,15.40
2022-09-12T06:08:52.631Z,17.08
2022-09-12T06:11:21.561Z,15.13
2022-09-12T06:13:49.087Z,14.23
2022-09-12T06:16:22.011Z,15.75
2022-09-12T06:18:59.524Z,18.45
2022-09-12T06:21:27.354Z,14.13
2022-09-12T06:23:55.076Z,17.98
2022-09-12T06:26:23.543Z,16.83
2022-09-12T06:28:51.451Z,12.10
2022-09-12T06:31:29.352Z,16.87
2022-09-12T06:33:57.397Z,14.40
2022-09-12T06:36:26.621Z,13.95
2022-09-12T06:38:58.067Z,15.23
2022-09-12T06:41:25.776Z,17.17
2022-09-12T06:43:53.231Z,13.70
2022-09-12T06:46:21.142Z,14.10
2022-09-12T06:48:48.876Z,10.98
2022-09-12T06:51:17.715Z,12.82
2022-09-12T06:53:45.233Z,15.90
2022-09-12T06:56:13.720Z,13.27
2022-09-12T06:58:41.436Z,12.37
2022-09-12T07:01:13.314Z,13.60
2022-09-12T07:03:41.160Z,19.05
2022-09-12T07:06:10.561Z,18.65
2022-09-12T07:08:38.280Z,15.40
2022-09-12T07:11:21.656Z,9.75
2022-09-12T07:13:50.510Z,15.63
2022-09-12T07:16:19.946Z,12.50
2022-09-12T07:19:00.280Z,11.05
2022-09-12T07:21:28.298Z,11.10
2022-09-12T07:23:57.772Z,17.92
2022-09-12T07:26:29.244Z,12.55
2022-09-12T07:29:12.898Z,8.50
2022-09-12T07:31:45.177Z,11.07
2022-09-12T07:34:13.006Z,8.90
2022-09-12T07:36:40.355Z,9.68
2022-09-12T07:39:07.706Z,9.27
2022-09-12T07:41:35.467Z,9.65
2022-09-12T07:44:03.240Z,9.93
2022-09-12T07:46:30.941Z,10.88
2022-09-12T07:48:59.340Z,9.65
2022-09-12T07:51:27.651Z,7.32
2022-09-12T07:53:56.293Z,10.30
2022-09-12T07:56:29.434Z,8.32
2022-09-12T07:58:57.409Z,7.37
2022-09-12T08:01:25.134Z,11.18
2022-09-12T08:03:57.590Z,6.80
2022-09-12T08:06:25.479Z,9.82
2022-09-12T08:08:54.468Z,7.43
2022-09-12T08:11:22.326Z,9.43
2022-09-12T08:13:55.429Z,8.68
2022-09-12T08:16:27.290Z,8.50
2022-09-12T08:18:54.811Z,7.70
2022-09-12T08:21:23.947Z,8.20
2022-09-12T08:23:53.333Z,7.43
2022-09-12T08:26:20.671Z,6.35
2022-09-12T08:28:48.006Z,7.35
2022-09-12T08:31:17.038Z,7.32
2022-09-12T08:33:44.746Z,8.32
2022-09-12T08:36:15.822Z,7.68
2022-09-12T08:38:45.161Z,9.48
2022-09-12T08:41:18.539Z,8.57
2022-09-12T08:43:56.687Z,6.62
2022-09-12T08:46:59.602Z,9.95
2022-09-12T08:49:36.141Z,6.70
2022-09-12T08:52:19.531Z,7.40
2022-09-12T08:54:47.618Z,7.05
2022-09-12T08:57:15.609Z,6.35
2022-09-12T08:59:44.862Z,6.87
2022-09-12T09:02:29.338Z,9.40
2022-09-12T09:05:20.299Z,7.72
2022-09-12T09:08:19.085Z,9.70
2022-09-12T09:11:07.671Z,6.60
2022-09-12T09:14:05.143Z,7.55
2022-09-12T09:16:38.107Z,8.95
2022-09-12T09:19:29.630Z,6.05
2022-09-12T09:21:58.282Z,7.35
2022-09-12T09:24:28.965Z,6.05
2022-09-12T09:27:02.090Z,7.15
2022-09-12T09:29:50.647Z,10.32
2022-09-12T09:32:19.111Z,7.00
2022-09-12T09:34:46.726Z,6.45
2022-09-12T09:37:19.665Z,7.95
2022-09-12T09:39:52.861Z,6.12
2022-09-12T09:42:40.563Z,6.72
2022-09-12T09:45:16.328Z,7.68
2022-09-12T09:48:11.296Z,7.50
2022-09-12T09:50:48.225Z,7.35
2022-09-12T09:53:40.365Z,7.30
2022-09-12T09:56:27.025Z,7.22
2022-09-12T09:58:54.334Z,7.35
2022-09-12T10:01:22.266Z,7.53
2022-09-12T10:03:53.875Z,8.65
2022-09-12T10:06:21.180Z,7.35
2022-09-12T10:08:48.938Z,6.72
2022-09-12T10:11:16.375Z,7.22
2022-09-12T10:13:57.587Z,8.55
2022-09-12T10:16:49.768Z,7.62
2022-09-12T10:19:24.986Z,7.18
2022-09-12T10:21:53.788Z,8.05
2022-09-12T10:24:41.251Z,7.50
2022-09-12T10:27:10.095Z,7.93
2022-09-12T10:29:46.001Z,8.13
2022-09-12T10:32:31.121Z,7.55
2022-09-12T10:35:02.881Z,8.15
2022-09-12T10:37:32.789Z,28.40
2022-09-12T10:40:00.743Z,8.27
2022-09-12T10:42:56.461Z,8.27
2022-09-12T10:45:32.077Z,8.85
2022-09-12T10:48:05.422Z,8.68
2022-09-12T10:50:41.727Z,7.37
2022-09-12T10:53:22.570Z,11.43
2022-09-12T10:56:09.802Z,8.40
2022-09-12T10:58:48.875Z,8.65
2022-09-12T11:01:37.352Z,8.60
2022-09-12T11:04:32.817Z,8.68
2022-09-12T11:07:16.450Z,8.73
2022-09-12T11:10:21.766Z,9.80
2022-09-12T11:13:06.202Z,8.40
2022-09-12T11:15:57.396Z,8.27
2022-09-12T11:18:33.644Z,8.82
2022-09-12T11:21:13.508Z,8.30
2022-09-12T11:23:43.769Z,9.27
2022-09-12T11:26:34.932Z,8.88
2022-09-12T11:29:26.594Z,8.32
2022-09-12T11:32:27.733Z,8.07
2022-09-12T11:35:16.634Z,7.82
2022-09-12T11:37:50.701Z,7.87
2022-09-12T11:40:38.488Z,8.90
2022-09-12T11:43:27.971Z,7.95
2022-09-12T11:45:55.632Z,7.70
2022-09-12T11:48:38.042Z,8.40
2022-09-12T11:51:07.611Z,8.57
2022-09-12T11:53:36.994Z,13.88
2022-09-12T11:56:13.831Z,8.35
2022-09-12T11:58:42.124Z,13.43
2022-09-12T12:01:11.792Z,7.60
2022-09-12T12:03:44.720Z,10.63
2022-09-12T12:06:12.701Z,7.50
2022-09-12T12:08:41.888Z,8.05
2022-09-12T12:11:09.522Z,7.90
2022-09-12T12:13:39.962Z,8.35
2022-09-12T12:16:28.508Z,7.55
2022-09-12T12:19:00.296Z,12.88
2022-09-12T12:21:42.269Z,8.00
2022-09-12T12:24:09.561Z,8.50
2022-09-12T12:26:42.922Z,8.13
2022-09-12T12:29:13.512Z,8.95
2022-09-12T12:32:04.443Z,11.45
2022-09-12T12:34:42.243Z,8.45
2022-09-12T12:37:18.753Z,9.48
2022-09-12T12:42:36.692Z,9.07
2022-09-12T12:45:24.417Z,8.27
2022-09-12T12:48:03.975Z,8.45
2022-09-12T12:50:33.637Z,8.98
2022-09-12T12:53:19.585Z,9.43
2022-09-12T12:55:51.446Z,7.50
2022-09-12T12:58:32.094Z,9.00
2022-09-12T13:01:28.984Z,8.52
2022-09-12T13:04:05.478Z,9.55
2022-09-12T13:06:34.230Z,9.88
2022-09-12T13:09:23.117Z,10.48
2022-09-12T13:12:08.132Z,8.48
2022-09-12T13:14:49.728Z,8.95
2022-09-12T13:17:22.698Z,10.77
2022-09-12T13:20:00.802Z,9.20
2022-09-12T13:22:45.968Z,8.48
2022-09-12T13:25:25.628Z,8.70
2022-09-12T13:28:03.670Z,8.13
2022-09-12T13:30:33.098Z,9.77
2022-09-12T13:33:27.035Z,8.05
2022-09-12T13:36:23.744Z,8.75
2022-09-12T13:38:57.218Z,9.02
2022-09-12T13:42:03.109Z,8.77
2022-09-12T13:44:30.739Z,9.30
2022-09-12T13:47:01.119Z,8.23
2022-09-12T13:49:35.203Z,9.00
2022-09-12T13:52:04.894Z,8.40
2022-09-12T13:54:32.400Z,8.85
2022-09-12T13:56:59.857Z,9.20
2022-09-12T13:59:27.938Z,9.65
2022-09-12T14:01:55.370Z,13.10
2022-09-12T14:04:43.370Z,11.15
2022-09-12T14:07:18.900Z,10.05
2022-09-12T14:09:55.101Z,8.65
2022-09-12T14:12:26.515Z,8.65
2022-09-12T14:14:54.107Z,8.23
2022-09-12T14:17:31.682Z,8.85
2022-09-12T14:20:03.275Z,8.02
2022-09-12T14:22:30.800Z,8.48
2022-09-12T14:24:59.270Z,7.60
2022-09-12T14:27:32.226Z,8.48
2022-09-12T14:30:07.297Z,7.80
2022-09-12T14:32:35.463Z,8.98
2022-09-12T14:35:11.825Z,8.38
2022-09-12T14:37:39.447Z,7.93
2022-09-12T14:40:19.220Z,8.85
2022-09-12T14:42:49.606Z,8.65
2022-09-12T14:45:26.230Z,8.55
2022-09-12T14:47:53.948Z,8.45
2022-09-12T14:50:26.381Z,8.65
2022-09-12T14:53:07.914Z,7.55
2022-09-12T14:55:36.079Z,8.02
2022-09-12T14:58:12.041Z,8.10
2022-09-12T15:01:22.427Z,8.30
2022-09-12T15:03:53.285Z,8.27
2022-09-12T15:06:30.926Z,8.02
2022-09-12T15:09:02.280Z,7.60
2022-09-12T15:11:29.618Z,7.90
2022-09-12T15:13:56.982Z,7.55
2022-09-12T15:16:24.620Z,8.98
2022-09-12T15:18:52.098Z,8.13
2022-09-12T15:21:19.912Z,8.10
2022-09-12T15:23:48.928Z,8.55
2022-09-12T15:26:18.269Z,10.65
2022-09-12T15:28:45.644Z,8.30
2022-09-12T15:31:13.146Z,9.10
2022-09-12T15:33:40.582Z,7.70
2022-09-12T15:36:16.436Z,8.23
2022-09-12T15:38:44.453Z,9.55
2022-09-12T15:41:16.477Z,8.60
2022-09-12T15:43:44.347Z,8.18
2022-09-12T15:46:12.276Z,9.10
2022-09-12T15:48:39.669Z,8.05
2022-09-12T15:51:15.608Z,8.82
2022-09-12T15:53:43.604Z,8.68
2022-09-12T15:56:11.514Z,8.63
2022-09-12T15:58:54.623Z,8.43
2022-09-12T16:01:25.823Z,8.77
2022-09-12T16:03:53.446Z,8.38
2022-09-12T16:06:20.795Z,8.27
2022-09-12T16:08:48.189Z,8.52
2022-09-12T16:11:21.027Z,9.27
2022-09-12T16:13:48.926Z,8.43
2022-09-12T16:16:16.621Z,8.50
2022-09-12T16:18:44.077Z,8.88
2022-09-12T16:21:14.921Z,8.70
2022-09-12T16:23:46.746Z,8.90
2022-09-12T16:26:14.097Z,8.80
2022-09-12T16:28:41.469Z,8.73
2022-09-12T16:31:10.987Z,8.82
2022-09-12T16:33:38.724Z,8.80
2022-09-12T16:36:07.565Z,8.38
2022-09-12T16:38:35.883Z,8.40
2022-09-12T16:41:05.350Z,9.00
2022-09-12T16:43:33.199Z,8.27
2022-09-12T16:46:11.447Z,7.90
2022-09-12T16:48:49.532Z,8.13
2022-09-12T16:51:20.940Z,8.30
2022-09-12T16:53:48.301Z,8.70
2022-09-12T16:56:15.704Z,6.65
2022-09-12T16:58:45.181Z,7.87
2022-09-12T17:01:14.876Z,9.27
2022-09-12T17:03:42.445Z,7.75
2022-09-12T17:06:12.112Z,9.63
2022-09-12T17:08:41.151Z,7.55
2022-09-12T17:11:10.228Z,6.37
2022-09-12T17:14:02.685Z,7.40
2022-09-12T17:16:26.468Z,7.82
2022-09-12T17:18:54.087Z,7.50
2022-09-12T17:21:21.621Z,7.60
2022-09-12T17:23:49.789Z,7.03
2022-09-12T17:26:17.441Z,7.85
2022-09-12T17:28:47.552Z,7.82
2022-09-12T17:31:15.109Z,8.27
2022-09-12T17:33:43.015Z,7.55
2022-09-12T17:36:14.945Z,9.07
2022-09-12T17:38:43.556Z,7.40
2022-09-12T17:41:18.520Z,6.80
2022-09-12T17:43:50.250Z,7.85
2022-09-12T17:46:20.872Z,8.10
2022-09-12T17:48:52.765Z,7.18
2022-09-12T17:51:20.388Z,7.87
2022-09-12T17:53:48.413Z,7.93
2022-09-12T17:56:15.838Z,6.75
2022-09-12T17:58:44.387Z,10.05
2022-09-12T18:01:34.714Z,8.30
2022-09-12T18:04:03.478Z,7.15
2022-09-12T18:06:31.530Z,8.27
2022-09-12T18:09:01.116Z,6.70
2022-09-12T18:11:29.010Z,7.28
2022-09-12T18:14:00.209Z,8.63
2022-09-12T18:16:31.522Z,7.03
2022-09-12T18:19:01.341Z,7.65
2022-09-12T18:21:29.014Z,8.32
2022-09-12T18:23:58.920Z,6.87
2022-09-12T18:26:27.335Z,7.47
2022-09-12T18:28:54.757Z,8.00
2022-09-12T18:31:23.996Z,7.47
2022-09-12T18:33:51.812Z,7.10
2022-09-12T18:36:19.689Z,7.47
2022-09-12T18:38:47.975Z,6.47
2022-09-12T18:41:17.317Z,6.82
2022-09-12T18:43:45.006Z,6.03
2022-09-12T18:46:17.224Z,7.03
2022-09-12T18:48:45.129Z,7.30
2022-09-12T18:51:17.938Z,6.75
2022-09-12T18:54:08.893Z,7.32
2022-09-12T18:56:38.051Z,6.20
2022-09-12T18:59:06.558Z,6.30
2022-09-12T19:01:37.720Z,7.28
2022-09-12T19:04:05.761Z,7.00
2022-09-12T19:06:41.141Z,6.65
2022-09-12T19:09:09.111Z,6.05
2022-09-12T19:11:37.845Z,6.97
2022-09-12T19:14:05.748Z,6.60
2022-09-12T19:16:33.223Z,6.37
2022-09-12T19:19:02.527Z,5.75
2022-09-12T19:21:30.947Z,5.95
2022-09-12T19:24:03.533Z,5.35
2022-09-12T19:26:31.133Z,5.65
2022-09-12T19:29:00.015Z,5.87
2022-09-12T19:31:27.466Z,6.37
2022-09-12T19:34:02.557Z,8.32
2022-09-12T19:36:47.088Z,5.93
2022-09-12T19:39:16.888Z,6.20
2022-09-12T19:41:44.474Z,6.35
2022-09-12T19:44:11.955Z,6.68
2022-09-12T19:46:40.426Z,6.07
2022-09-12T19:49:09.472Z,5.93
2022-09-12T19:51:36.816Z,6.40
2022-09-12T19:54:04.641Z,7.05
2022-09-12T19:56:33.054Z,6.03
2022-09-12T19:59:00.417Z,5.30
2022-09-12T20:01:28.566Z,6.75
2022-09-12T20:03:57.244Z,6.62
2022-09-12T20:06:24.606Z,6.00
2022-09-12T20:08:51.953Z,5.82
2022-09-12T20:11:23.368Z,5.47
2022-09-12T20:13:50.825Z,6.28
2022-09-12T20:16:25.835Z,7.70
2022-09-12T20:18:57.094Z,8.35
2022-09-12T20:21:30.893Z,8.13
2022-09-12T20:24:11.992Z,8.25
2022-09-12T20:26:39.850Z,5.50
2022-09-12T20:29:07.648Z,5.30
2022-09-12T20:31:35.507Z,5.25
2022-09-12T20:34:03.087Z,5.53
2022-09-12T20:36:30.725Z,5.20
2022-09-12T20:39:01.188Z,7.45
2022-09-12T20:41:29.952Z,6.78
2022-09-12T20:43:57.594Z,5.35
2022-09-12T20:46:25.689Z,8.18
2022-09-12T20:48:53.150Z,6.80
2022-09-12T20:51:20.997Z,5.40
2022-09-12T20:53:48.547Z,6.80
2022-09-12T20:56:16.004Z,4.82
2022-09-12T20:58:44.602Z,5.03
2022-09-12T21:01:13.212Z,4.93
2022-09-12T21:03:40.908Z,7.90
2022-09-12T21:06:08.993Z,11.40
2022-09-12T21:08:36.702Z,5.05
2022-09-12T21:11:04.426Z,5.20
2022-09-12T21:13:32.114Z,8.38
2022-09-12T21:16:03.782Z,6.07
2022-09-12T21:18:31.421Z,8.02
2022-09-12T21:20:59.006Z,7.43
2022-09-12T21:23:26.867Z,5.15
2022-09-12T21:25:54.258Z,6.85
2022-09-12T21:28:22.132Z,4.93
2022-09-12T21:30:49.811Z,7.10
2022-09-12T21:33:18.276Z,8.30
2022-09-12T21:35:49.146Z,6.05
2022-09-12T21:38:16.901Z,8.02
2022-09-12T21:40:44.576Z,8.10
2022-09-12T21:43:13.133Z,7.85
2022-09-12T21:45:40.641Z,6.75
2022-09-12T21:48:07.972Z,7.10
2022-09-12T21:50:35.620Z,6.40
2022-09-12T21:53:03.094Z,6.43
2022-09-12T21:55:31.155Z,7.03
2022-09-12T21:57:58.786Z,5.35
2022-09-12T22:00:26.137Z,5.47
2022-09-12T22:02:53.787Z,6.15
2022-09-12T22:05:24.574Z,6.68
2022-09-12T22:07:52.534Z,6.00
2022-09-12T22:10:20.160Z,5.47
2022-09-12T22:12:47.502Z,4.65
2022-09-12T22:15:39.366Z,5.12
2022-09-12T22:18:02.423Z,7.85
2022-09-12T22:20:29.786Z,7.93
2022-09-12T22:23:15.734Z,5.40
2022-09-12T22:28:10.611Z,4.90
2022-09-12T22:30:38.637Z,5.07
2022-09-12T22:33:06.291Z,4.60
2022-09-12T22:35:33.669Z,7.97
2022-09-12T22:38:01.010Z,6.97
2022-09-12T22:40:28.597Z,4.45
2022-09-12T22:42:55.955Z,6.28
2022-09-12T22:45:23.297Z,7.30
2022-09-12T22:47:50.981Z,6.50
2022-09-12T22:50:18.357Z,5.95
2022-09-12T22:52:45.690Z,5.15
2022-09-12T22:55:13.302Z,4.72
2022-09-12T22:57:40.621Z,5.00
2022-09-12T23:00:10.550Z,5.45
2022-09-12T23:02:38.173Z,5.95
2022-09-12T23:05:06.181Z,7.53
2022-09-12T23:07:33.604Z,5.10
2022-09-12T23:10:01.256Z,5.53
2022-09-12T23:12:28.611Z,5.37
2022-09-12T23:14:55.939Z,6.18
2022-09-12T23:17:23.569Z,10.30
2022-09-12T23:19:50.919Z,6.35
2022-09-12T23:22:18.386Z,4.62
2022-09-12T23:24:45.963Z,4.93
2022-09-12T23:27:13.328Z,4.40
2022-09-12T23:29:40.649Z,8.20
2022-09-12T23:32:08.242Z,5.18
2022-09-12T23:34:35.598Z,6.43
2022-09-12T23:37:03.251Z,5.25
2022-09-12T23:39:31.854Z,4.90
2022-09-12T23:41:59.210Z,6.57
2022-09-12T23:44:26.542Z,4.87
2022-09-12T23:46:54.160Z,4.25
2022-09-12T23:49:21.658Z,5.35
2022-09-12T23:51:49.014Z,6.75
2022-09-12T23:54:16.610Z,6.35
2022-09-12T23:56:43.947Z,6.97
2022-09-12T23:59:11.275Z,5.22
